Conowingo, Maryland
Current Conditions -  °F | °C
As of 5:55 AM on Thursday 23 Oct 2014 (Local Time) from KMQS Reporting Station
Light Rain Light Rain  
Wind Chill: 50°   Ceiling: 3900
Heat Index: 50°   Visibility: 10mi
Dew Point: 45°   Wind: 14mph
Humidity: 82%   Direction: 320°NW
Pressure: 29.81"   Gusts: 22mph
Location:  39.68°N, 76.16°W
Report Text: KMQS 230955Z AUTO 32012G19KT 10SM -RA SCT033 BKN039 OVC065 10/07 A2981 RMK AO2
Loading
Personal Weather Stations






























Interactive Weather Map
Tropical Storm Tracking
New forecast layout! Learn more

10-Day Weather Forecast

Advertisements
Track Severe Weather on mobile